Trowbridge, United Kingdom
Current Conditions -  °F | °C
As of 10:20 PM on Monday 24 Nov 2014 (Local Time) from EGGD Reporting Station
Clear Clear  
Wind Chill: 32°   Ceiling: Unl
Heat Index: 36°   Visibility: 6mi
Dew Point: 36°   Wind: 5mph
Humidity: 100%   Direction: 90°E
Pressure: 30.3"   Gusts: NA
Location:  51.32°N, 2.21°W
Report Text: EGGD 242220Z 09004KT CAVOK 02/02 Q1026
Loading
Personal Weather Stations






























Interactive Weather Map New forecast layout! Learn more

10-Day Weather Forecast

Advertisements
Track Severe Weather on mobile